MUC | München Airways

 METAR UND TAF INFORMATION

METAR FOR LIMC
ADDS - METARS form results

(0900 UTC 22 March 2019)
Data provider http://aviationweather.gov/metar/data/
 
METAR text: LIMC 220850Z 29003KT 240V020 CAVOK 13/00 Q1031 NOSIG
Conditions at: LIMC (MILANO/MALPENSA , IT) observed 0850 UTC 22 March 2019
Temperature: 13.0°C (55°F)
Dewpoint: 0.0°C (32°F) [RH = 41%]
Pressure (altimeter): 30.44 inches Hg (1031.0 mb)
Winds: from the WNW (290 degrees) at 3 MPH (3 knots; 1.5 m/s)
Visibility: 6 or more miles (10+ km)
Ceiling: ceiling and visibility are OK
Clouds: unknown
Weather: no significant weather observed at this time

METAR text: LIMC 220820Z 34005KT CAVOK 11/M00 Q1031 NOSIG
Conditions at: LIMC (MILANO/MALPENSA , IT) observed 0820 UTC 22 March 2019
Temperature: 11.0°C (52°F)
Dewpoint: 0.0°C (32°F) [RH = 47%]
Pressure (altimeter): 30.44 inches Hg (1031.0 mb)
Winds: from the NNW (340 degrees) at 6 MPH (5 knots; 2.6 m/s)
Visibility: 6 or more miles (10+ km)
Ceiling: ceiling and visibility are OK
Clouds: unknown
Weather: no significant weather observed at this time

Forecast for: LIMC (MILANO/MALPENSA , IT)
Text: TAF LIMC 220500Z 2206/2312 VRB05KT CAVOK
Forecast period: 0600 UTC 22 March 2019 to 1200 UTC 23 March 2019
Forecast type: FROM: standard forecast or significant change
Winds: variable direction winds at 6 MPH (5 knots; 2.6 m/s)
Visibility: 6 or more miles 10+ km)
Ceiling: unknown
Clouds: missing
Weather: NSW  (no significant weather)

 FLUGHAFENKARTE

 RUNWAY INFORMATION
Runway 17R Runway length 12861 ft Runway width 197 ft
Runway elevation 764 ft Runway displaced threshold 0 ft Runway heading 170
Runway 35L Runway length 12861 ft Runway width 197 ft
Runway elevation 696 ft Runway displaced threshold 1329 ft Runway heading 350
Runway 17L Runway length 12861 ft Runway width 197 ft
Runway elevation 745 ft Runway displaced threshold 3094 ft Runway heading 170
Runway 35R Runway length 12861 ft Runway width 197 ft
Runway elevation 691 ft Runway displaced threshold 0 ft Runway heading 350

 AIRPORT FREQUENCIES
Type APP Name MILANO APP Frequency 132.7 MHZ
Type ATIS Name ATIS Frequency 120.025 MHZ
Type CLD Name CLNC DEL Frequency 120.9 MHZ
Type DEP Name MILANO DEP Frequency 126.75 MHZ
Type GND Name GND Frequency 121.9 MHZ
Type TWR Name TWR Frequency 119 MHZ

 AIRPORT NEAR NAVIGATION AIDS
Type VOR-DME Name Malpensa Frequency 111200 KHZ
Type NDB Name Malpensa Frequency 364 KHZ